sensor_id;sensor_type;location;lat;lon;timestamp;temperature;humidity
9527;DHT22;4802;51.494;6.770;2022-10-17T00:06:12;16.60;99.90
9527;DHT22;4802;51.494;6.770;2022-10-17T00:09:09;16.10;99.90
9527;DHT22;4802;51.494;6.770;2022-10-17T00:12:06;15.90;99.90
9527;DHT22;4802;51.494;6.770;2022-10-17T00:15:03;16.20;99.90
9527;DHT22;4802;51.494;6.770;2022-10-17T00:18:01;16.20;99.90
9527;DHT22;4802;51.494;6.770;2022-10-17T00:20:39;16.20;99.90
9527;DHT22;4802;51.494;6.770;2022-10-17T00:23:57;16.10;99.90
9527;DHT22;4802;51.494;6.770;2022-10-17T00:26:42;15.80;99.90
9527;DHT22;4802;51.494;6.770;2022-10-17T00:29:15;16.10;99.90
9527;DHT22;4802;51.494;6.770;2022-10-17T00:32:06;16.10;99.90
9527;DHT22;4802;51.494;6.770;2022-10-17T00:35:03;16.10;99.90
9527;DHT22;4802;51.494;6.770;2022-10-17T00:37:59;16.10;99.90
9527;DHT22;4802;51.494;6.770;2022-10-17T00:45:07;15.70;99.90
9527;DHT22;4802;51.494;6.770;2022-10-17T00:48:10;16.10;99.90
9527;DHT22;4802;51.494;6.770;2022-10-17T00:51:14;15.90;99.90
9527;DHT22;4802;51.494;6.770;2022-10-17T00:53:55;16.10;99.90
9527;DHT22;4802;51.494;6.770;2022-10-17T00:56:48;16.10;99.90
9527;DHT22;4802;51.494;6.770;2022-10-17T00:59:50;16.20;99.90
9527;DHT22;4802;51.494;6.770;2022-10-17T01:13:32;16.50;99.90
9527;DHT22;4802;51.494;6.770;2022-10-17T01:16:30;16.30;99.90
9527;DHT22;4802;51.494;6.770;2022-10-17T01:19:31;16.20;99.90
9527;DHT22;4802;51.494;6.770;2022-10-17T01:22:24;16.40;99.90
9527;DHT22;4802;51.494;6.770;2022-10-17T01:28:16;16.40;99.90
9527;DHT22;4802;51.494;6.770;2022-10-17T01:34:31;16.50;99.90
9527;DHT22;4802;51.494;6.770;2022-10-17T01:37:05;16.50;99.90
9527;DHT22;4802;51.494;6.770;2022-10-17T01:39:42;16.50;99.90
9527;DHT22;4802;51.494;6.770;2022-10-17T01:42:43;16.50;99.90
9527;DHT22;4802;51.494;6.770;2022-10-17T01:45:33;16.50;99.90
9527;DHT22;4802;51.494;6.770;2022-10-17T01:48:26;17.00;99.90
9527;DHT22;4802;51.494;6.770;2022-10-17T01:51:29;16.50;99.90
9527;DHT22;4802;51.494;6.770;2022-10-17T01:54:20;16.50;99.90
9527;DHT22;4802;51.494;6.770;2022-10-17T01:57:14;16.50;99.90
9527;DHT22;4802;51.494;6.770;2022-10-17T02:00:13;16.60;99.90
9527;DHT22;4802;51.494;6.770;2022-10-17T02:03:13;15.80;99.90
9527;DHT22;4802;51.494;6.770;2022-10-17T02:05:58;16.60;99.90
9527;DHT22;4802;51.494;6.770;2022-10-17T02:08:58;16.60;99.90
9527;DHT22;4802;51.494;6.770;2022-10-17T02:11:30;16.60;99.90
9527;DHT22;4802;51.494;6.770;2022-10-17T02:14:17;16.60;55.10
9527;DHT22;4802;51.494;6.770;2022-10-17T02:16:57;16.60;1.40
9527;DHT22;4802;51.494;6.770;2022-10-17T02:19:57;16.70;1.00
9527;DHT22;4802;51.494;6.770;2022-10-17T02:22:46;16.70;1.00
9527;DHT22;4802;51.494;6.770;2022-10-17T02:25:44;16.70;1.00
9527;DHT22;4802;51.494;6.770;2022-10-17T02:28:34;16.30;99.90
9527;DHT22;4802;51.494;6.770;2022-10-17T02:31:13;16.70;99.90
9527;DHT22;4802;51.494;6.770;2022-10-17T02:34:00;16.70;99.90
9527;DHT22;4802;51.494;6.770;2022-10-17T02:36:44;16.70;99.90
9527;DHT22;4802;51.494;6.770;2022-10-17T02:39:30;16.70;99.90
9527;DHT22;4802;51.494;6.770;2022-10-17T02:45:31;16.80;99.90
9527;DHT22;4802;51.494;6.770;2022-10-17T02:48:09;16.80;1.00
9527;DHT22;4802;51.494;6.770;2022-10-17T02:51:00;16.80;99.90
9527;DHT22;4802;51.494;6.770;2022-10-17T02:53:41;16.80;99.90
9527;DHT22;4802;51.494;6.770;2022-10-17T02:56:29;16.90;1.00
9527;DHT22;4802;51.494;6.770;2022-10-17T02:58:59;16.90;99.90
9527;DHT22;4802;51.494;6.770;2022-10-17T03:01:55;16.90;99.90
9527;DHT22;4802;51.494;6.770;2022-10-17T03:04:25;16.80;99.90
9527;DHT22;4802;51.494;6.770;2022-10-17T03:07:13;16.80;1.00
9527;DHT22;4802;51.494;6.770;2022-10-17T03:09:46;16.40;1.00
9527;DHT22;4802;51.494;6.770;2022-10-17T03:12:20;16.80;1.00
9527;DHT22;4802;51.494;6.770;2022-10-17T03:15:17;16.80;99.90
9527;DHT22;4802;51.494;6.770;2022-10-17T03:18:30;16.60;1.00
9527;DHT22;4802;51.494;6.770;2022-10-17T03:21:16;16.80;99.90
9527;DHT22;4802;51.494;6.770;2022-10-17T03:24:12;16.90;1.00
9527;DHT22;4802;51.494;6.770;2022-10-17T03:26:59;16.90;1.00
9527;DHT22;4802;51.494;6.770;2022-10-17T03:29:46;16.90;1.00
9527;DHT22;4802;51.494;6.770;2022-10-17T03:32:18;16.80;1.00
9527;DHT22;4802;51.494;6.770;2022-10-17T03:34:56;16.90;99.90
9527;DHT22;4802;51.494;6.770;2022-10-17T03:37:25;16.90;99.90
9527;DHT22;4802;51.494;6.770;2022-10-17T03:40:09;16.90;99.00
9527;DHT22;4802;51.494;6.770;2022-10-17T03:42:48;17.00;1.00
9527;DHT22;4802;51.494;6.770;2022-10-17T03:45:19;17.00;99.90
9527;DHT22;4802;51.494;6.770;2022-10-17T03:47:50;17.00;99.90
9527;DHT22;4802;51.494;6.770;2022-10-17T03:50:23;17.00;99.90
9527;DHT22;4802;51.494;6.770;2022-10-17T03:52:52;16.60;99.90
9527;DHT22;4802;51.494;6.770;2022-10-17T03:55:21;17.00;99.90
9527;DHT22;4802;51.494;6.770;2022-10-17T03:57:55;17.00;99.90
9527;DHT22;4802;51.494;6.770;2022-10-17T04:00:28;16.90;99.90
9527;DHT22;4802;51.494;6.770;2022-10-17T04:02:57;17.00;99.90
9527;DHT22;4802;51.494;6.770;2022-10-17T04:05:36;16.90;99.90
9527;DHT22;4802;51.494;6.770;2022-10-17T04:08:14;16.90;83.90
9527;DHT22;4802;51.494;6.770;2022-10-17T04:10:57;17.00;1.00
9527;DHT22;4802;51.494;6.770;2022-10-17T04:13:40;17.00;1.00
9527;DHT22;4802;51.494;6.770;2022-10-17T04:16:16;17.00;1.00
9527;DHT22;4802;51.494;6.770;2022-10-17T04:18:54;16.80;1.00
9527;DHT22;4802;51.494;6.770;2022-10-17T04:21:34;17.00;1.00
9527;DHT22;4802;51.494;6.770;2022-10-17T04:24:18;17.00;1.00
9527;DHT22;4802;51.494;6.770;2022-10-17T04:29:23;17.20;99.90
9527;DHT22;4802;51.494;6.770;2022-10-17T04:32:28;17.10;99.90
9527;DHT22;4802;51.494;6.770;2022-10-17T04:35:11;16.80;90.00
9527;DHT22;4802;51.494;6.770;2022-10-17T04:38:20;16.70;37.20
9527;DHT22;4802;51.494;6.770;2022-10-17T04:41:06;16.90;1.00
9527;DHT22;4802;51.494;6.770;2022-10-17T04:43:56;17.20;1.00
9527;DHT22;4802;51.494;6.770;2022-10-17T04:46:41;17.30;1.00
9527;DHT22;4802;51.494;6.770;2022-10-17T04:49:25;17.20;1.00
9527;DHT22;4802;51.494;6.770;2022-10-17T04:52:04;17.30;1.00
9527;DHT22;4802;51.494;6.770;2022-10-17T04:55:05;17.20;1.00
9527;DHT22;4802;51.494;6.770;2022-10-17T04:57:36;17.20;1.00
9527;DHT22;4802;51.494;6.770;2022-10-17T05:00:08;17.20;1.00
9527;DHT22;4802;51.494;6.770;2022-10-17T05:03:08;17.20;1.00
9527;DHT22;4802;51.494;6.770;2022-10-17T05:05:40;17.20;1.00
9527;DHT22;4802;51.494;6.770;2022-10-17T05:08:26;17.20;1.00
9527;DHT22;4802;51.494;6.770;2022-10-17T05:14:22;17.20;1.00
9527;DHT22;4802;51.494;6.770;2022-10-17T05:17:15;17.60;1.00
9527;DHT22;4802;51.494;6.770;2022-10-17T05:19:58;17.30;1.00
9527;DHT22;4802;51.494;6.770;2022-10-17T05:22:43;17.20;1.00
9527;DHT22;4802;51.494;6.770;2022-10-17T05:25:25;17.30;1.00
9527;DHT22;4802;51.494;6.770;2022-10-17T05:28:04;17.30;1.00
9527;DHT22;4802;51.494;6.770;2022-10-17T05:44:20;17.40;1.00
9527;DHT22;4802;51.494;6.770;2022-10-17T05:47:08;17.30;1.00
9527;DHT22;4802;51.494;6.770;2022-10-17T05:50:06;17.70;1.00
9527;DHT22;4802;51.494;6.770;2022-10-17T05:53:16;17.30;1.00
9527;DHT22;4802;51.494;6.770;2022-10-17T05:55:55;17.00;1.00
9527;DHT22;4802;51.494;6.770;2022-10-17T05:58:33;17.30;99.90
9527;DHT22;4802;51.494;6.770;2022-10-17T06:01:33;17.40;99.90
9527;DHT22;4802;51.494;6.770;2022-10-17T06:04:07;17.30;99.90
9527;DHT22;4802;51.494;6.770;2022-10-17T06:06:41;17.40;99.90
9527;DHT22;4802;51.494;6.770;2022-10-17T06:09:25;17.40;99.90
9527;DHT22;4802;51.494;6.770;2022-10-17T06:12:03;17.40;99.90
9527;DHT22;4802;51.494;6.770;2022-10-17T06:14:38;17.40;99.90
9527;DHT22;4802;51.494;6.770;2022-10-17T06:20:26;17.00;99.90
9527;DHT22;4802;51.494;6.770;2022-10-17T06:22:55;17.10;99.90
9527;DHT22;4802;51.494;6.770;2022-10-17T06:25:38;17.50;99.90
9527;DHT22;4802;51.494;6.770;2022-10-17T06:28:35;17.20;99.90
9527;DHT22;4802;51.494;6.770;2022-10-17T06:31:16;17.50;99.90
9527;DHT22;4802;51.494;6.770;2022-10-17T06:34:01;17.60;99.90
9527;DHT22;4802;51.494;6.770;2022-10-17T06:40:28;17.30;99.90
9527;DHT22;4802;51.494;6.770;2022-10-17T06:43:03;17.70;99.90
9527;DHT22;4802;51.494;6.770;2022-10-17T06:45:39;17.70;99.90
9527;DHT22;4802;51.494;6.770;2022-10-17T06:48:36;17.80;99.90
9527;DHT22;4802;51.494;6.770;2022-10-17T06:51:28;17.80;99.90
9527;DHT22;4802;51.494;6.770;2022-10-17T06:53:59;17.90;99.90
9527;DHT22;4802;51.494;6.770;2022-10-17T07:11:45;18.00;99.90
9527;DHT22;4802;51.494;6.770;2022-10-17T07:14:22;18.30;99.90
9527;DHT22;4802;51.494;6.770;2022-10-17T08:32:39;24.10;1.00
9527;DHT22;4802;51.494;6.770;2022-10-17T08:35:46;24.20;1.00
9527;DHT22;4802;51.494;6.770;2022-10-17T08:38:48;23.80;1.00
9527;DHT22;4802;51.494;6.770;2022-10-17T08:41:44;23.50;1.00
9527;DHT22;4802;51.494;6.770;2022-10-17T08:44:26;23.40;1.00
9527;DHT22;4802;51.494;6.770;2022-10-17T08:47:20;23.50;1.00
9527;DHT22;4802;51.494;6.770;2022-10-17T08:50:31;24.00;1.00
9527;DHT22;4802;51.494;6.770;2022-10-17T08:53:20;24.40;1.00
9527;DHT22;4802;51.494;6.770;2022-10-17T08:55:55;24.60;1.00
9527;DHT22;4802;51.494;6.770;2022-10-17T08:58:46;24.20;1.00
9527;DHT22;4802;51.494;6.770;2022-10-17T09:01:31;23.50;1.00
9527;DHT22;4802;51.494;6.770;2022-10-17T09:04:19;22.80;1.00
9527;DHT22;4802;51.494;6.770;2022-10-17T09:07:14;22.40;1.00
9527;DHT22;4802;51.494;6.770;2022-10-17T09:10:09;22.70;1.00
9527;DHT22;4802;51.494;6.770;2022-10-17T09:12:48;22.70;1.00
9527;DHT22;4802;51.494;6.770;2022-10-17T09:15:53;22.60;1.00
9527;DHT22;4802;51.494;6.770;2022-10-17T09:18:49;23.00;1.00
9527;DHT22;4802;51.494;6.770;2022-10-17T09:21:38;23.20;1.00
9527;DHT22;4802;51.494;6.770;2022-10-17T09:27:23;22.80;1.00
9527;DHT22;4802;51.494;6.770;2022-10-17T09:30:21;22.20;1.00
9527;DHT22;4802;51.494;6.770;2022-10-17T09:33:14;22.00;1.00
9527;DHT22;4802;51.494;6.770;2022-10-17T09:36:12;21.80;1.00
9527;DHT22;4802;51.494;6.770;2022-10-17T09:38:49;21.70;1.00
9527;DHT22;4802;51.494;6.770;2022-10-17T09:41:33;21.50;1.00
9527;DHT22;4802;51.494;6.770;2022-10-17T09:44:23;21.30;1.00
9527;DHT22;4802;51.494;6.770;2022-10-17T09:47:05;21.20;1.00
9527;DHT22;4802;51.494;6.770;2022-10-17T09:49:43;21.10;1.00
9527;DHT22;4802;51.494;6.770;2022-10-17T09:52:39;21.00;1.00
9527;DHT22;4802;51.494;6.770;2022-10-17T09:55:43;20.90;1.00
9527;DHT22;4802;51.494;6.770;2022-10-17T09:58:21;20.80;1.00
9527;DHT22;4802;51.494;6.770;2022-10-17T10:01:15;20.60;1.00
9527;DHT22;4802;51.494;6.770;2022-10-17T10:04:10;20.70;1.00
9527;DHT22;4802;51.494;6.770;2022-10-17T10:07:01;20.60;1.00
9527;DHT22;4802;51.494;6.770;2022-10-17T10:09:40;20.60;1.00
9527;DHT22;4802;51.494;6.770;2022-10-17T10:12:18;20.60;1.00
9527;DHT22;4802;51.494;6.770;2022-10-17T10:14:58;20.60;1.00
9527;DHT22;4802;51.494;6.770;2022-10-17T10:17:39;20.50;1.00
9527;DHT22;4802;51.494;6.770;2022-10-17T10:20:28;20.40;1.00
9527;DHT22;4802;51.494;6.770;2022-10-17T10:23:11;20.00;1.00
9527;DHT22;4802;51.494;6.770;2022-10-17T10:25:56;20.20;1.00
9527;DHT22;4802;51.494;6.770;2022-10-17T10:28:28;20.20;1.00
9527;DHT22;4802;51.494;6.770;2022-10-17T10:31:02;20.20;1.00
9527;DHT22;4802;51.494;6.770;2022-10-17T10:33:39;20.00;1.00
9527;DHT22;4802;51.494;6.770;2022-10-17T10:36:16;20.40;1.00
9527;DHT22;4802;51.494;6.770;2022-10-17T10:38:54;20.50;1.00
9527;DHT22;4802;51.494;6.770;2022-10-17T10:41:45;20.60;1.00
9527;DHT22;4802;51.494;6.770;2022-10-17T10:44:36;20.60;1.00
9527;DHT22;4802;51.494;6.770;2022-10-17T10:47:19;20.60;1.00
9527;DHT22;4802;51.494;6.770;2022-10-17T10:50:06;20.60;1.00
9527;DHT22;4802;51.494;6.770;2022-10-17T10:52:41;20.80;1.00
9527;DHT22;4802;51.494;6.770;2022-10-17T10:55:22;20.50;1.00
9527;DHT22;4802;51.494;6.770;2022-10-17T10:58:08;20.40;1.00
9527;DHT22;4802;51.494;6.770;2022-10-17T11:00:56;20.40;1.00
9527;DHT22;4802;51.494;6.770;2022-10-17T11:03:34;20.30;1.00
9527;DHT22;4802;51.494;6.770;2022-10-17T11:06:33;20.30;1.00
9527;DHT22;4802;51.494;6.770;2022-10-17T11:09:28;20.20;1.00
9527;DHT22;4802;51.494;6.770;2022-10-17T11:12:08;20.20;1.00
9527;DHT22;4802;51.494;6.770;2022-10-17T11:14:45;20.20;1.00
9527;DHT22;4802;51.494;6.770;2022-10-17T11:17:26;20.20;1.00
9527;DHT22;4802;51.494;6.770;2022-10-17T11:20:18;20.20;10.60
9527;DHT22;4802;51.494;6.770;2022-10-17T11:22:56;19.80;20.10
9527;DHT22;4802;51.494;6.770;2022-10-17T11:25:33;19.70;47.10
9527;DHT22;4802;51.494;6.770;2022-10-17T11:28:12;20.00;52.10
9527;DHT22;4802;51.494;6.770;2022-10-17T11:30:49;20.00;66.10
9527;DHT22;4802;51.494;6.770;2022-10-17T11:33:24;20.00;99.90
9527;DHT22;4802;51.494;6.770;2022-10-17T11:36:00;20.10;98.60
9527;DHT22;4802;51.494;6.770;2022-10-17T11:38:40;20.00;97.00
9527;DHT22;4802;51.494;6.770;2022-10-17T11:41:21;20.00;93.30
9527;DHT22;4802;51.494;6.770;2022-10-17T11:43:56;20.00;96.40
9527;DHT22;4802;51.494;6.770;2022-10-17T11:46:34;20.00;91.80
9527;DHT22;4802;51.494;6.770;2022-10-17T11:49:10;20.10;80.90
9527;DHT22;4802;51.494;6.770;2022-10-17T11:51:53;20.30;98.60
9527;DHT22;4802;51.494;6.770;2022-10-17T11:54:36;20.40;92.50
9527;DHT22;4802;51.494;6.770;2022-10-17T11:57:19;20.40;69.30
9527;DHT22;4802;51.494;6.770;2022-10-17T12:00:02;20.50;43.60
9527;DHT22;4802;51.494;6.770;2022-10-17T12:02:43;20.50;35.00
9527;DHT22;4802;51.494;6.770;2022-10-17T12:05:23;20.50;25.50
9527;DHT22;4802;51.494;6.770;2022-10-17T12:08:00;20.40;23.90
9527;DHT22;4802;51.494;6.770;2022-10-17T12:10:43;20.30;36.10
9527;DHT22;4802;51.494;6.770;2022-10-17T12:13:50;20.30;43.80
9527;DHT22;4802;51.494;6.770;2022-10-17T12:16:47;20.20;31.40
9527;DHT22;4802;51.494;6.770;2022-10-17T12:19:32;20.10;39.20
9527;DHT22;4802;51.494;6.770;2022-10-17T12:22:21;19.80;52.50
9527;DHT22;4802;51.494;6.770;2022-10-17T12:24:57;20.00;76.60
9527;DHT22;4802;51.494;6.770;2022-10-17T12:27:38;20.00;71.00
9527;DHT22;4802;51.494;6.770;2022-10-17T12:30:19;19.90;69.30
9527;DHT22;4802;51.494;6.770;2022-10-17T12:33:02;19.90;84.50
9527;DHT22;4802;51.494;6.770;2022-10-17T12:35:35;19.90;91.60
9527;DHT22;4802;51.494;6.770;2022-10-17T12:38:27;19.80;71.80
9527;DHT22;4802;51.494;6.770;2022-10-17T12:41:02;20.00;78.70
9527;DHT22;4802;51.494;6.770;2022-10-17T12:43:52;20.00;80.90
9527;DHT22;4802;51.494;6.770;2022-10-17T12:46:55;20.00;63.60
9527;DHT22;4802;51.494;6.770;2022-10-17T12:49:46;19.80;62.30
9527;DHT22;4802;51.494;6.770;2022-10-17T12:52:25;20.10;66.40
9527;DHT22;4802;51.494;6.770;2022-10-17T12:55:09;20.10;50.40
9527;DHT22;4802;51.494;6.770;2022-10-17T12:57:50;20.10;52.70
9527;DHT22;4802;51.494;6.770;2022-10-17T13:00:32;20.20;27.70
9527;DHT22;4802;51.494;6.770;2022-10-17T13:03:25;20.20;36.40
9527;DHT22;4802;51.494;6.770;2022-10-17T13:06:02;20.30;34.50
9527;DHT22;4802;51.494;6.770;2022-10-17T13:08:42;20.20;18.70
9527;DHT22;4802;51.494;6.770;2022-10-17T13:11:21;20.30;4.40
9527;DHT22;4802;51.494;6.770;2022-10-17T13:13:58;20.30;8.70
9527;DHT22;4802;51.494;6.770;2022-10-17T13:16:35;20.30;8.60
9527;DHT22;4802;51.494;6.770;2022-10-17T13:19:14;20.40;9.80
9527;DHT22;4802;51.494;6.770;2022-10-17T13:21:52;20.30;1.00
9527;DHT22;4802;51.494;6.770;2022-10-17T13:24:33;20.30;1.00
9527;DHT22;4802;51.494;6.770;2022-10-17T13:27:06;20.30;13.20
9527;DHT22;4802;51.494;6.770;2022-10-17T13:29:55;20.10;21.40
9527;DHT22;4802;51.494;6.770;2022-10-17T13:32:38;20.30;29.20
9527;DHT22;4802;51.494;6.770;2022-10-17T13:35:13;20.30;26.90
9527;DHT22;4802;51.494;6.770;2022-10-17T13:38:04;20.20;46.20
9527;DHT22;4802;51.494;6.770;2022-10-17T13:40:43;19.90;63.50
9527;DHT22;4802;51.494;6.770;2022-10-17T13:43:29;20.10;60.40
9527;DHT22;4802;51.494;6.770;2022-10-17T13:46:01;20.10;81.10
9527;DHT22;4802;51.494;6.770;2022-10-17T13:49:16;20.10;74.20
9527;DHT22;4802;51.494;6.770;2022-10-17T13:51:55;20.10;87.20
9527;DHT22;4802;51.494;6.770;2022-10-17T13:54:50;20.20;96.30
9527;DHT22;4802;51.494;6.770;2022-10-17T13:57:25;20.20;99.90
9527;DHT22;4802;51.494;6.770;2022-10-17T13:59:58;20.30;97.60
9527;DHT22;4802;51.494;6.770;2022-10-17T14:02:34;20.30;93.20
9527;DHT22;4802;51.494;6.770;2022-10-17T14:05:34;20.40;85.50
9527;DHT22;4802;51.494;6.770;2022-10-17T14:08:03;20.40;77.60
9527;DHT22;4802;51.494;6.770;2022-10-17T14:10:50;20.40;69.10
9527;DHT22;4802;51.494;6.770;2022-10-17T14:13:33;20.50;70.00
9527;DHT22;4802;51.494;6.770;2022-10-17T14:16:09;20.50;71.70
9527;DHT22;4802;51.494;6.770;2022-10-17T14:18:52;20.10;62.20
9527;DHT22;4802;51.494;6.770;2022-10-17T14:21:30;20.40;53.00
9527;DHT22;4802;51.494;6.770;2022-10-17T14:24:23;20.40;69.70
9527;DHT22;4802;51.494;6.770;2022-10-17T14:26:55;20.40;75.10
9527;DHT22;4802;51.494;6.770;2022-10-17T14:29:29;20.30;56.00
9527;DHT22;4802;51.494;6.770;2022-10-17T14:32:04;20.20;79.20
9527;DHT22;4802;51.494;6.770;2022-10-17T14:34:39;20.20;83.40
9527;DHT22;4802;51.494;6.770;2022-10-17T14:37:19;20.10;90.90
9527;DHT22;4802;51.494;6.770;2022-10-17T14:39:54;20.10;91.50
9527;DHT22;4802;51.494;6.770;2022-10-17T14:42:27;20.10;95.70
9527;DHT22;4802;51.494;6.770;2022-10-17T14:45:06;20.10;94.40
9527;DHT22;4802;51.494;6.770;2022-10-17T14:47:38;20.10;99.90
9527;DHT22;4802;51.494;6.770;2022-10-17T14:50:23;20.00;96.00
9527;DHT22;4802;51.494;6.770;2022-10-17T14:53:04;20.00;99.90
9527;DHT22;4802;51.494;6.770;2022-10-17T14:55:35;20.00;99.90
9527;DHT22;4802;51.494;6.770;2022-10-17T14:58:15;19.90;99.90
9527;DHT22;4802;51.494;6.770;2022-10-17T15:00:48;19.90;99.90
9527;DHT22;4802;51.494;6.770;2022-10-17T15:03:22;19.80;99.90
9527;DHT22;4802;51.494;6.770;2022-10-17T15:05:55;19.60;99.90
9527;DHT22;4802;51.494;6.770;2022-10-17T15:08:31;19.70;99.90
9527;DHT22;4802;51.494;6.770;2022-10-17T15:11:05;19.70;99.90
9527;DHT22;4802;51.494;6.770;2022-10-17T15:13:49;19.70;99.90
9527;DHT22;4802;51.494;6.770;2022-10-17T15:16:21;19.70;99.90
9527;DHT22;4802;51.494;6.770;2022-10-17T15:18:57;19.60;99.90
9527;DHT22;4802;51.494;6.770;2022-10-17T15:21:31;19.60;99.90
9527;DHT22;4802;51.494;6.770;2022-10-17T15:24:14;19.50;99.90
9527;DHT22;4802;51.494;6.770;2022-10-17T15:26:44;19.50;99.90
9527;DHT22;4802;51.494;6.770;2022-10-17T15:29:17;19.40;99.90
9527;DHT22;4802;51.494;6.770;2022-10-17T15:31:48;19.40;99.90
9527;DHT22;4802;51.494;6.770;2022-10-17T15:34:20;19.60;99.90
9527;DHT22;4802;51.494;6.770;2022-10-17T15:36:51;19.30;99.90
9527;DHT22;4802;51.494;6.770;2022-10-17T15:39:24;19.20;99.90
9527;DHT22;4802;51.494;6.770;2022-10-17T15:41:55;19.40;99.90
9527;DHT22;4802;51.494;6.770;2022-10-17T15:44:25;19.10;99.90
9527;DHT22;4802;51.494;6.770;2022-10-17T15:46:55;18.90;99.90
9527;DHT22;4802;51.494;6.770;2022-10-17T15:49:25;19.10;99.90
9527;DHT22;4802;51.494;6.770;2022-10-17T15:52:01;19.00;99.90
9527;DHT22;4802;51.494;6.770;2022-10-17T15:54:34;19.00;99.90
9527;DHT22;4802;51.494;6.770;2022-10-17T15:57:04;19.00;1.00
9527;DHT22;4802;51.494;6.770;2022-10-17T15:59:34;19.00;1.00
9527;DHT22;4802;51.494;6.770;2022-10-17T16:02:07;18.90;1.00
9527;DHT22;4802;51.494;6.770;2022-10-17T16:04:43;18.90;1.00
9527;DHT22;4802;51.494;6.770;2022-10-17T16:07:17;18.90;1.00
9527;DHT22;4802;51.494;6.770;2022-10-17T16:09:57;18.80;1.00
9527;DHT22;4802;51.494;6.770;2022-10-17T16:12:34;18.70;1.00
9527;DHT22;4802;51.494;6.770;2022-10-17T16:15:13;18.70;1.00
9527;DHT22;4802;51.494;6.770;2022-10-17T16:17:43;18.60;1.00
9527;DHT22;4802;51.494;6.770;2022-10-17T16:20:13;18.60;1.00
9527;DHT22;4802;51.494;6.770;2022-10-17T16:22:43;18.60;1.00
9527;DHT22;4802;51.494;6.770;2022-10-17T16:25:23;18.40;1.00
9527;DHT22;4802;51.494;6.770;2022-10-17T16:27:59;18.50;1.00
9527;DHT22;4802;51.494;6.770;2022-10-17T16:30:30;18.50;1.00
9527;DHT22;4802;51.494;6.770;2022-10-17T16:32:59;18.40;1.00
9527;DHT22;4802;51.494;6.770;2022-10-17T16:35:30;18.40;1.00
9527;DHT22;4802;51.494;6.770;2022-10-17T16:38:04;18.30;1.00
9527;DHT22;4802;51.494;6.770;2022-10-17T16:40:37;18.60;1.00
9527;DHT22;4802;51.494;6.770;2022-10-17T16:43:08;18.30;1.00
9527;DHT22;4802;51.494;6.770;2022-10-17T16:45:38;18.30;1.00
9527;DHT22;4802;51.494;6.770;2022-10-17T16:48:08;18.30;1.00
9527;DHT22;4802;51.494;6.770;2022-10-17T16:50:40;18.30;1.00
9527;DHT22;4802;51.494;6.770;2022-10-17T16:53:09;18.20;1.00
9527;DHT22;4802;51.494;6.770;2022-10-17T16:55:39;18.20;1.00
9527;DHT22;4802;51.494;6.770;2022-10-17T16:58:08;18.20;1.00
9527;DHT22;4802;51.494;6.770;2022-10-17T17:00:39;18.20;1.00
9527;DHT22;4802;51.494;6.770;2022-10-17T17:03:17;18.10;2.50
9527;DHT22;4802;51.494;6.770;2022-10-17T17:05:55;18.10;99.90
9527;DHT22;4802;51.494;6.770;2022-10-17T17:08:26;18.10;99.90
9527;DHT22;4802;51.494;6.770;2022-10-17T17:10:57;18.10;99.90
9527;DHT22;4802;51.494;6.770;2022-10-17T17:13:27;18.10;99.90
9527;DHT22;4802;51.494;6.770;2022-10-17T17:16:04;18.10;99.90
9527;DHT22;4802;51.494;6.770;2022-10-17T17:18:36;18.00;99.90
9527;DHT22;4802;51.494;6.770;2022-10-17T17:21:19;18.00;99.90
9527;DHT22;4802;51.494;6.770;2022-10-17T17:23:49;18.00;99.90
9527;DHT22;4802;51.494;6.770;2022-10-17T17:26:25;18.00;1.00
9527;DHT22;4802;51.494;6.770;2022-10-17T17:28:58;18.00;1.00
9527;DHT22;4802;51.494;6.770;2022-10-17T17:31:32;18.00;1.00
9527;DHT22;4802;51.494;6.770;2022-10-17T17:34:02;17.90;1.00
9527;DHT22;4802;51.494;6.770;2022-10-17T17:36:33;17.80;99.90
9527;DHT22;4802;51.494;6.770;2022-10-17T17:39:05;17.90;99.90
9527;DHT22;4802;51.494;6.770;2022-10-17T17:41:40;17.90;99.90
9527;DHT22;4802;51.494;6.770;2022-10-17T17:44:11;17.90;99.90
9527;DHT22;4802;51.494;6.770;2022-10-17T17:46:43;17.90;99.90
9527;DHT22;4802;51.494;6.770;2022-10-17T17:49:13;17.90;99.90
9527;DHT22;4802;51.494;6.770;2022-10-17T17:51:43;17.90;99.90
9527;DHT22;4802;51.494;6.770;2022-10-17T17:54:16;17.90;99.90
9527;DHT22;4802;51.494;6.770;2022-10-17T17:56:53;17.90;99.90
9527;DHT22;4802;51.494;6.770;2022-10-17T17:59:22;17.80;99.90
9527;DHT22;4802;51.494;6.770;2022-10-17T18:01:57;17.80;99.90
9527;DHT22;4802;51.494;6.770;2022-10-17T18:04:29;17.80;99.90
9527;DHT22;4802;51.494;6.770;2022-10-17T18:06:58;17.80;99.90
9527;DHT22;4802;51.494;6.770;2022-10-17T18:09:28;17.80;99.90
9527;DHT22;4802;51.494;6.770;2022-10-17T18:12:00;17.80;99.90
9527;DHT22;4802;51.494;6.770;2022-10-17T18:14:36;17.80;99.90
9527;DHT22;4802;51.494;6.770;2022-10-17T18:17:06;17.80;99.90
9527;DHT22;4802;51.494;6.770;2022-10-17T18:19:36;17.70;99.90
9527;DHT22;4802;51.494;6.770;2022-10-17T18:22:06;17.70;99.90
9527;DHT22;4802;51.494;6.770;2022-10-17T18:24:36;17.70;1.00
9527;DHT22;4802;51.494;6.770;2022-10-17T18:27:10;17.70;1.00
9527;DHT22;4802;51.494;6.770;2022-10-17T18:29:42;17.70;99.90
9527;DHT22;4802;51.494;6.770;2022-10-17T18:32:13;17.70;72.20
9527;DHT22;4802;51.494;6.770;2022-10-17T18:34:42;17.70;99.90
9527;DHT22;4802;51.494;6.770;2022-10-17T18:37:11;17.70;99.90
9527;DHT22;4802;51.494;6.770;2022-10-17T18:39:54;17.60;1.00
9527;DHT22;4802;51.494;6.770;2022-10-17T18:42:26;17.60;99.90
9527;DHT22;4802;51.494;6.770;2022-10-17T18:44:59;17.60;1.00
9527;DHT22;4802;51.494;6.770;2022-10-17T18:47:37;17.60;1.00
9527;DHT22;4802;51.494;6.770;2022-10-17T18:50:22;17.60;1.10
9527;DHT22;4802;51.494;6.770;2022-10-17T18:53:05;17.60;1.00
9527;DHT22;4802;51.494;6.770;2022-10-17T18:55:38;17.50;1.00
9527;DHT22;4802;51.494;6.770;2022-10-17T18:58:11;17.10;1.00
9527;DHT22;4802;51.494;6.770;2022-10-17T19:00:40;17.50;99.90
9527;DHT22;4802;51.494;6.770;2022-10-17T19:03:10;17.50;99.90
9527;DHT22;4802;51.494;6.770;2022-10-17T19:05:48;17.50;99.90
9527;DHT22;4802;51.494;6.770;2022-10-17T19:08:19;17.50;1.00
9527;DHT22;4802;51.494;6.770;2022-10-17T19:10:52;17.50;1.00
9527;DHT22;4802;51.494;6.770;2022-10-17T19:13:25;17.60;99.90
9527;DHT22;4802;51.494;6.770;2022-10-17T19:15:55;17.50;1.00
9527;DHT22;4802;51.494;6.770;2022-10-17T19:18:25;17.50;99.90
9527;DHT22;4802;51.494;6.770;2022-10-17T19:21:00;17.50;1.00
9527;DHT22;4802;51.494;6.770;2022-10-17T19:23:31;17.50;31.40
9527;DHT22;4802;51.494;6.770;2022-10-17T19:26:04;17.50;1.00
9527;DHT22;4802;51.494;6.770;2022-10-17T19:28:38;17.50;99.90
9527;DHT22;4802;51.494;6.770;2022-10-17T19:31:11;17.50;99.90
9527;DHT22;4802;51.494;6.770;2022-10-17T19:34:02;17.50;8.40
9527;DHT22;4802;51.494;6.770;2022-10-17T19:36:36;17.20;1.00
9527;DHT22;4802;51.494;6.770;2022-10-17T19:39:17;17.40;1.00
9527;DHT22;4802;51.494;6.770;2022-10-17T19:41:47;17.50;1.00
9527;DHT22;4802;51.494;6.770;2022-10-17T19:44:23;17.40;1.00
9527;DHT22;4802;51.494;6.770;2022-10-17T19:46:53;17.40;1.00
9527;DHT22;4802;51.494;6.770;2022-10-17T19:49:25;17.40;99.90
9527;DHT22;4802;51.494;6.770;2022-10-17T19:51:58;17.40;18.90
9527;DHT22;4802;51.494;6.770;2022-10-17T19:54:30;17.40;1.00
9527;DHT22;4802;51.494;6.770;2022-10-17T19:57:01;17.40;99.90
9527;DHT22;4802;51.494;6.770;2022-10-17T19:59:40;17.40;1.00
9527;DHT22;4802;51.494;6.770;2022-10-17T20:02:12;17.30;99.90
9527;DHT22;4802;51.494;6.770;2022-10-17T20:04:43;17.30;99.90
9527;DHT22;4802;51.494;6.770;2022-10-17T20:07:26;17.30;78.90